Westville, SC (29175)

3:52 AM EDT on October 25, 2014 (GMT -0400)
Woodward | Change Station
CLOSE
Current Station
Airport
Location: Camden,
Elevation: 302 ft
Nearby Weather Stations

Elev 302 ft 34.28 °N, 80.56 °W | Updated -142 second ago

Clear
Clear
41 °F
Feels Like 41 °F
N
0
Wind Variable Wind from North

Today
High -- | Low -- °F
--% Chance of Precip.
Yesterday
High -- | Low -- °F
Precip. -- in
7:36 AM 6:36 PM
New Moon, 2% visible
Pressure 30.01 in
Visibility 8.0 miles
Clouds Clear
Dew Point 41 °F
Humidity 100%
Rainfall 0.00 in
Snow Depth Not available.
UV 0 out of 12
Pollen 3.00 out of 12
Air Quality Not available.
Flu Activity Sporadic
METAR KCDN 250755Z AUTO 00000KT 8SM CLR 05/05 A3001 RMK AO2 TSNO

More Conditions Fewer Conditions

Pressure 30.01 in
Visibility 8.0 miles
Clouds Clear
Dew Point 41 °F
Humidity 100%
Rainfall 0.00 in
Snow Depth Not available.
UV 0 out of 12
Pollen 3.00 out of 12
Air Quality Not available.
Flu Activity Sporadic
METAR KCDN 250755Z AUTO 00000KT 8SM CLR 05/05 A3001 RMK AO2 TSNO

More Conditions Fewer Conditions

10-Day Weather Forecast

Almanac

Astronomy

Oct. 25, 2014 Rise Set
Actual Time 7:36 AM EDT 6:36 PM EDT
Civil Twilight 7:10 AM EDT 7:01 PM EDT
Nautical Twilight 6:41 AM EDT 7:31 PM EDT
Astronomical Twilight 6:11 AM EDT 8:00 PM EDT
Moon 9:10 AM EDT 8:01 PM EDT
Length of Visible Light 11h 51m
Length of Day
10h 59m
Tomorrow will be 1m 58s shorter.
New Moon, 2% of the Moon is Illuminated
Today
New Moon
Oct 30
First Quarter
Nov 6
Full
Nov 14
Last Quarter
Nov 22
New

Today's Extremes

State Highs State Lows

Community

WunderPhotos

Upload Photos

1,764,791 photos uploaded!

Nearby

Air Quality

  Air Quality AQ Index Pollutant
Yesterday Good
OZONE

Snow Depth

Station Depth Elevation
No new snow has been reported.

Earthquake Activity

City Distance Mag. Time & Date
No recent earthquake activity has been reported nearby.
Minimum magnitude displayed is 2.5.

Coastal Water Temperatures

Place Temperature
No Stations Reporting

Nearby Weather Stations